sensor_id;sensor_type;location;lat;lon;timestamp;P1;P2;P0
73917;PMS5003;63639;52.280;5.162;2022-11-18T00:01:06;9;9;
73917;PMS5003;63639;52.280;5.162;2022-11-18T00:03:34;8;8;
73917;PMS5003;63639;52.280;5.162;2022-11-18T00:06:01;10;9;
73917;PMS5003;63639;52.280;5.162;2022-11-18T00:08:28;7;6;
73917;PMS5003;63639;52.280;5.162;2022-11-18T00:10:55;10;8;
73917;PMS5003;63639;52.280;5.162;2022-11-18T00:13:22;10;7;
73917;PMS5003;63639;52.280;5.162;2022-11-18T00:15:49;9;8;
73917;PMS5003;63639;52.280;5.162;2022-11-18T00:18:25;5;5;
73917;PMS5003;63639;52.280;5.162;2022-11-18T00:20:52;7;7;
73917;PMS5003;63639;52.280;5.162;2022-11-18T00:23:19;8;8;
73917;PMS5003;63639;52.280;5.162;2022-11-18T00:25:46;11;9;
73917;PMS5003;63639;52.280;5.162;2022-11-18T00:28:13;12;8;
73917;PMS5003;63639;52.280;5.162;2022-11-18T00:30:39;7;7;
73917;PMS5003;63639;52.280;5.162;2022-11-18T00:33:06;7;7;
73917;PMS5003;63639;52.280;5.162;2022-11-18T00:35:33;8;8;
73917;PMS5003;63639;52.280;5.162;2022-11-18T00:38:00;7;7;
73917;PMS5003;63639;52.280;5.162;2022-11-18T00:40:27;8;8;
73917;PMS5003;63639;52.280;5.162;2022-11-18T00:42:54;7;7;
73917;PMS5003;63639;52.280;5.162;2022-11-18T00:45:21;7;7;
73917;PMS5003;63639;52.280;5.162;2022-11-18T00:47:48;7;7;
73917;PMS5003;63639;52.280;5.162;2022-11-18T00:50:15;8;8;
73917;PMS5003;63639;52.280;5.162;2022-11-18T00:52:42;8;7;
73917;PMS5003;63639;52.280;5.162;2022-11-18T00:55:09;6;6;
73917;PMS5003;63639;52.280;5.162;2022-11-18T00:57:36;7;7;
73917;PMS5003;63639;52.280;5.162;2022-11-18T01:00:03;7;7;
73917;PMS5003;63639;52.280;5.162;2022-11-18T01:02:31;9;9;
73917;PMS5003;63639;52.280;5.162;2022-11-18T01:04:57;7;7;
73917;PMS5003;63639;52.280;5.162;2022-11-18T01:07:24;10;7;
73917;PMS5003;63639;52.280;5.162;2022-11-18T01:09:51;10;8;
73917;PMS5003;63639;52.280;5.162;2022-11-18T01:12:18;8;7;
73917;PMS5003;63639;52.280;5.162;2022-11-18T01:14:45;9;8;
73917;PMS5003;63639;52.280;5.162;2022-11-18T01:17:12;8;8;
73917;PMS5003;63639;52.280;5.162;2022-11-18T01:19:39;7;7;
73917;PMS5003;63639;52.280;5.162;2022-11-18T01:22:06;5;5;
73917;PMS5003;63639;52.280;5.162;2022-11-18T01:24:33;6;6;
73917;PMS5003;63639;52.280;5.162;2022-11-18T01:27:00;10;9;
73917;PMS5003;63639;52.280;5.162;2022-11-18T01:29:26;8;7;
73917;PMS5003;63639;52.280;5.162;2022-11-18T01:31:53;9;9;
73917;PMS5003;63639;52.280;5.162;2022-11-18T01:34:20;9;8;
73917;PMS5003;63639;52.280;5.162;2022-11-18T01:36:47;5;5;
73917;PMS5003;63639;52.280;5.162;2022-11-18T01:39:14;6;6;
73917;PMS5003;63639;52.280;5.162;2022-11-18T01:41:40;6;6;
73917;PMS5003;63639;52.280;5.162;2022-11-18T01:44:57;7;7;
73917;PMS5003;63639;52.280;5.162;2022-11-18T01:47:28;9;8;
73917;PMS5003;63639;52.280;5.162;2022-11-18T01:50:00;10;8;
73917;PMS5003;63639;52.280;5.162;2022-11-18T01:52:27;10;9;
73917;PMS5003;63639;52.280;5.162;2022-11-18T01:54:56;8;8;
73917;PMS5003;63639;52.280;5.162;2022-11-18T01:57:29;9;9;
73917;PMS5003;63639;52.280;5.162;2022-11-18T01:59:56;8;8;
73917;PMS5003;63639;52.280;5.162;2022-11-18T02:02:26;8;8;
73917;PMS5003;63639;52.280;5.162;2022-11-18T02:04:56;8;8;
73917;PMS5003;63639;52.280;5.162;2022-11-18T02:07:24;7;7;
73917;PMS5003;63639;52.280;5.162;2022-11-18T02:09:52;13;12;
73917;PMS5003;63639;52.280;5.162;2022-11-18T02:12:20;6;6;
73917;PMS5003;63639;52.280;5.162;2022-11-18T02:14:47;10;8;
73917;PMS5003;63639;52.280;5.162;2022-11-18T02:17:18;9;7;
73917;PMS5003;63639;52.280;5.162;2022-11-18T02:20:00;10;8;
73917;PMS5003;63639;52.280;5.162;2022-11-18T02:23:14;9;9;
73917;PMS5003;63639;52.280;5.162;2022-11-18T02:26:57;8;8;
73917;PMS5003;63639;52.280;5.162;2022-11-18T02:29:41;7;7;
73917;PMS5003;63639;52.280;5.162;2022-11-18T02:32:14;10;10;
73917;PMS5003;63639;52.280;5.162;2022-11-18T02:34:49;12;12;
73917;PMS5003;63639;52.280;5.162;2022-11-18T02:37:21;8;7;
73917;PMS5003;63639;52.280;5.162;2022-11-18T02:39:51;8;7;
73917;PMS5003;63639;52.280;5.162;2022-11-18T02:42:23;12;9;
73917;PMS5003;63639;52.280;5.162;2022-11-18T02:44:52;10;8;
73917;PMS5003;63639;52.280;5.162;2022-11-18T02:47:24;14;14;
73917;PMS5003;63639;52.280;5.162;2022-11-18T02:49:55;9;9;
73917;PMS5003;63639;52.280;5.162;2022-11-18T02:52:27;10;10;
73917;PMS5003;63639;52.280;5.162;2022-11-18T02:54:56;12;10;
73917;PMS5003;63639;52.280;5.162;2022-11-18T02:57:25;10;10;
73917;PMS5003;63639;52.280;5.162;2022-11-18T02:59:55;12;12;
73917;PMS5003;63639;52.280;5.162;2022-11-18T03:02:22;14;13;
73917;PMS5003;63639;52.280;5.162;2022-11-18T03:04:50;9;8;
73917;PMS5003;63639;52.280;5.162;2022-11-18T03:07:21;12;10;
73917;PMS5003;63639;52.280;5.162;2022-11-18T03:09:52;10;9;
73917;PMS5003;63639;52.280;5.162;2022-11-18T03:12:22;9;9;
73917;PMS5003;63639;52.280;5.162;2022-11-18T03:15:00;10;10;
73917;PMS5003;63639;52.280;5.162;2022-11-18T03:17:38;8;8;
73917;PMS5003;63639;52.280;5.162;2022-11-18T03:20:18;12;9;
73917;PMS5003;63639;52.280;5.162;2022-11-18T03:22:51;11;9;
73917;PMS5003;63639;52.280;5.162;2022-11-18T03:25:20;10;10;
73917;PMS5003;63639;52.280;5.162;2022-11-18T03:27:53;9;7;
73917;PMS5003;63639;52.280;5.162;2022-11-18T03:30:25;12;9;
73917;PMS5003;63639;52.280;5.162;2022-11-18T03:32:57;10;9;
73917;PMS5003;63639;52.280;5.162;2022-11-18T03:35:28;12;12;
73917;PMS5003;63639;52.280;5.162;2022-11-18T03:38:01;13;10;
73917;PMS5003;63639;52.280;5.162;2022-11-18T03:40:33;10;10;
73917;PMS5003;63639;52.280;5.162;2022-11-18T03:43:05;12;9;
73917;PMS5003;63639;52.280;5.162;2022-11-18T03:45:38;14;14;
73917;PMS5003;63639;52.280;5.162;2022-11-18T03:48:10;9;9;
73917;PMS5003;63639;52.280;5.162;2022-11-18T03:50:41;9;9;
73917;PMS5003;63639;52.280;5.162;2022-11-18T03:53:11;9;8;
73917;PMS5003;63639;52.280;5.162;2022-11-18T03:55:41;12;11;
73917;PMS5003;63639;52.280;5.162;2022-11-18T03:58:12;8;8;
73917;PMS5003;63639;52.280;5.162;2022-11-18T04:00:45;15;14;
73917;PMS5003;63639;52.280;5.162;2022-11-18T04:03:15;13;12;
73917;PMS5003;63639;52.280;5.162;2022-11-18T04:05:42;9;9;
73917;PMS5003;63639;52.280;5.162;2022-11-18T04:08:10;12;10;
73917;PMS5003;63639;52.280;5.162;2022-11-18T04:10:41;12;12;
73917;PMS5003;63639;52.280;5.162;2022-11-18T04:13:15;9;9;
73917;PMS5003;63639;52.280;5.162;2022-11-18T04:15:45;10;10;
73917;PMS5003;63639;52.280;5.162;2022-11-18T04:18:12;12;12;
73917;PMS5003;63639;52.280;5.162;2022-11-18T04:20:38;10;10;
73917;PMS5003;63639;52.280;5.162;2022-11-18T04:23:05;14;13;
73917;PMS5003;63639;52.280;5.162;2022-11-18T04:25:33;16;14;
73917;PMS5003;63639;52.280;5.162;2022-11-18T04:28:00;12;12;
73917;PMS5003;63639;52.280;5.162;2022-11-18T04:30:27;17;15;
73917;PMS5003;63639;52.280;5.162;2022-11-18T04:32:53;13;13;
73917;PMS5003;63639;52.280;5.162;2022-11-18T04:35:20;15;12;
73917;PMS5003;63639;52.280;5.162;2022-11-18T04:37:47;18;12;
73917;PMS5003;63639;52.280;5.162;2022-11-18T04:40:14;14;14;
73917;PMS5003;63639;52.280;5.162;2022-11-18T04:42:41;15;15;
73917;PMS5003;63639;52.280;5.162;2022-11-18T04:45:08;12;11;
73917;PMS5003;63639;52.280;5.162;2022-11-18T04:47:35;15;15;
73917;PMS5003;63639;52.280;5.162;2022-11-18T04:50:02;16;15;
73917;PMS5003;63639;52.280;5.162;2022-11-18T04:52:29;14;13;
73917;PMS5003;63639;52.280;5.162;2022-11-18T04:54:56;15;11;
73917;PMS5003;63639;52.280;5.162;2022-11-18T04:57:23;15;13;
73917;PMS5003;63639;52.280;5.162;2022-11-18T04:59:50;13;13;
73917;PMS5003;63639;52.280;5.162;2022-11-18T05:02:17;16;16;
73917;PMS5003;63639;52.280;5.162;2022-11-18T05:04:43;14;14;
73917;PMS5003;63639;52.280;5.162;2022-11-18T05:07:12;24;18;
73917;PMS5003;63639;52.280;5.162;2022-11-18T05:09:40;19;14;
73917;PMS5003;63639;52.280;5.162;2022-11-18T05:12:10;13;9;
73917;PMS5003;63639;52.280;5.162;2022-11-18T05:14:37;13;11;
73917;PMS5003;63639;52.280;5.162;2022-11-18T05:17:05;15;15;
73917;PMS5003;63639;52.280;5.162;2022-11-18T05:19:35;14;13;
73917;PMS5003;63639;52.280;5.162;2022-11-18T05:22:03;16;14;
73917;PMS5003;63639;52.280;5.162;2022-11-18T05:24:30;12;11;
73917;PMS5003;63639;52.280;5.162;2022-11-18T05:26:56;16;15;
73917;PMS5003;63639;52.280;5.162;2022-11-18T05:29:23;19;14;
73917;PMS5003;63639;52.280;5.162;2022-11-18T05:31:49;11;11;
73917;PMS5003;63639;52.280;5.162;2022-11-18T05:34:16;15;14;
73917;PMS5003;63639;52.280;5.162;2022-11-18T05:36:44;13;13;
73917;PMS5003;63639;52.280;5.162;2022-11-18T05:39:11;15;13;
73917;PMS5003;63639;52.280;5.162;2022-11-18T05:41:38;15;13;
73917;PMS5003;63639;52.280;5.162;2022-11-18T05:44:05;19;17;
73917;PMS5003;63639;52.280;5.162;2022-11-18T05:46:32;14;14;
73917;PMS5003;63639;52.280;5.162;2022-11-18T05:48:59;14;13;
73917;PMS5003;63639;52.280;5.162;2022-11-18T05:51:26;15;14;
73917;PMS5003;63639;52.280;5.162;2022-11-18T05:53:52;15;13;
73917;PMS5003;63639;52.280;5.162;2022-11-18T05:56:21;14;14;
73917;PMS5003;63639;52.280;5.162;2022-11-18T05:58:53;19;13;
73917;PMS5003;63639;52.280;5.162;2022-11-18T06:01:21;15;14;
73917;PMS5003;63639;52.280;5.162;2022-11-18T06:03:51;14;14;
73917;PMS5003;63639;52.280;5.162;2022-11-18T06:06:19;18;13;
73917;PMS5003;63639;52.280;5.162;2022-11-18T06:08:47;13;12;
73917;PMS5003;63639;52.280;5.162;2022-11-18T06:11:18;13;13;
73917;PMS5003;63639;52.280;5.162;2022-11-18T06:13:47;14;13;
73917;PMS5003;63639;52.280;5.162;2022-11-18T06:16:17;14;14;
73917;PMS5003;63639;52.280;5.162;2022-11-18T06:18:49;13;13;
73917;PMS5003;63639;52.280;5.162;2022-11-18T06:21:16;14;14;
73917;PMS5003;63639;52.280;5.162;2022-11-18T06:23:43;20;17;
73917;PMS5003;63639;52.280;5.162;2022-11-18T06:26:11;16;14;
73917;PMS5003;63639;52.280;5.162;2022-11-18T06:28:39;10;10;
73917;PMS5003;63639;52.280;5.162;2022-11-18T06:31:09;17;13;
73917;PMS5003;63639;52.280;5.162;2022-11-18T06:33:36;13;10;
73917;PMS5003;63639;52.280;5.162;2022-11-18T06:36:02;14;14;
73917;PMS5003;63639;52.280;5.162;2022-11-18T06:38:29;14;10;
73917;PMS5003;63639;52.280;5.162;2022-11-18T06:40:57;17;15;
73917;PMS5003;63639;52.280;5.162;2022-11-18T06:43:25;14;13;
73917;PMS5003;63639;52.280;5.162;2022-11-18T06:45:52;13;13;
73917;PMS5003;63639;52.280;5.162;2022-11-18T06:48:18;18;17;
73917;PMS5003;63639;52.280;5.162;2022-11-18T06:50:45;13;13;
73917;PMS5003;63639;52.280;5.162;2022-11-18T06:53:12;13;13;
73917;PMS5003;63639;52.280;5.162;2022-11-18T06:55:39;15;14;
73917;PMS5003;63639;52.280;5.162;2022-11-18T06:58:06;13;13;
73917;PMS5003;63639;52.280;5.162;2022-11-18T07:00:33;10;10;
73917;PMS5003;63639;52.280;5.162;2022-11-18T07:03:00;17;14;
73917;PMS5003;63639;52.280;5.162;2022-11-18T07:05:28;17;14;
73917;PMS5003;63639;52.280;5.162;2022-11-18T07:07:54;14;13;
73917;PMS5003;63639;52.280;5.162;2022-11-18T07:10:21;16;14;
73917;PMS5003;63639;52.280;5.162;2022-11-18T07:12:48;13;13;
73917;PMS5003;63639;52.280;5.162;2022-11-18T07:15:15;15;13;
73917;PMS5003;63639;52.280;5.162;2022-11-18T07:17:41;14;14;
73917;PMS5003;63639;52.280;5.162;2022-11-18T07:20:09;14;14;
73917;PMS5003;63639;52.280;5.162;2022-11-18T07:22:36;15;13;
73917;PMS5003;63639;52.280;5.162;2022-11-18T07:25:02;13;10;
73917;PMS5003;63639;52.280;5.162;2022-11-18T07:27:29;15;14;
73917;PMS5003;63639;52.280;5.162;2022-11-18T07:29:56;12;12;
73917;PMS5003;63639;52.280;5.162;2022-11-18T07:32:23;11;10;
73917;PMS5003;63639;52.280;5.162;2022-11-18T07:34:50;13;13;
73917;PMS5003;63639;52.280;5.162;2022-11-18T07:37:17;17;15;
73917;PMS5003;63639;52.280;5.162;2022-11-18T07:39:44;14;14;
73917;PMS5003;63639;52.280;5.162;2022-11-18T07:42:11;12;12;
73917;PMS5003;63639;52.280;5.162;2022-11-18T07:44:37;13;13;
73917;PMS5003;63639;52.280;5.162;2022-11-18T07:47:04;13;11;
73917;PMS5003;63639;52.280;5.162;2022-11-18T07:49:31;15;13;
73917;PMS5003;63639;52.280;5.162;2022-11-18T07:51:57;15;13;
73917;PMS5003;63639;52.280;5.162;2022-11-18T07:54:24;13;11;
73917;PMS5003;63639;52.280;5.162;2022-11-18T07:56:51;14;13;
73917;PMS5003;63639;52.280;5.162;2022-11-18T07:59:18;14;14;
73917;PMS5003;63639;52.280;5.162;2022-11-18T08:01:45;14;13;
73917;PMS5003;63639;52.280;5.162;2022-11-18T08:04:11;18;15;
73917;PMS5003;63639;52.280;5.162;2022-11-18T08:06:39;14;12;
73917;PMS5003;63639;52.280;5.162;2022-11-18T08:09:06;14;11;
73917;PMS5003;63639;52.280;5.162;2022-11-18T08:11:34;15;14;
73917;PMS5003;63639;52.280;5.162;2022-11-18T08:14:01;16;12;
73917;PMS5003;63639;52.280;5.162;2022-11-18T08:16:28;17;17;
73917;PMS5003;63639;52.280;5.162;2022-11-18T08:18:56;13;11;
73917;PMS5003;63639;52.280;5.162;2022-11-18T08:21:24;16;15;
73917;PMS5003;63639;52.280;5.162;2022-11-18T08:23:51;13;13;
73917;PMS5003;63639;52.280;5.162;2022-11-18T08:26:19;13;13;
73917;PMS5003;63639;52.280;5.162;2022-11-18T08:28:47;13;11;
73917;PMS5003;63639;52.280;5.162;2022-11-18T08:31:15;17;14;
73917;PMS5003;63639;52.280;5.162;2022-11-18T08:33:44;9;9;
73917;PMS5003;63639;52.280;5.162;2022-11-18T08:36:14;12;11;
73917;PMS5003;63639;52.280;5.162;2022-11-18T08:38:42;12;11;
73917;PMS5003;63639;52.280;5.162;2022-11-18T08:41:10;20;16;
73917;PMS5003;63639;52.280;5.162;2022-11-18T08:43:38;11;11;
73917;PMS5003;63639;52.280;5.162;2022-11-18T08:46:05;15;13;
73917;PMS5003;63639;52.280;5.162;2022-11-18T08:48:32;13;11;
73917;PMS5003;63639;52.280;5.162;2022-11-18T08:50:59;13;10;
73917;PMS5003;63639;52.280;5.162;2022-11-18T08:53:27;12;10;
73917;PMS5003;63639;52.280;5.162;2022-11-18T08:55:54;15;12;
73917;PMS5003;63639;52.280;5.162;2022-11-18T08:58:20;10;10;
73917;PMS5003;63639;52.280;5.162;2022-11-18T09:00:48;13;13;
73917;PMS5003;63639;52.280;5.162;2022-11-18T09:03:14;14;12;
73917;PMS5003;63639;52.280;5.162;2022-11-18T09:05:41;19;14;
73917;PMS5003;63639;52.280;5.162;2022-11-18T09:08:08;11;11;
73917;PMS5003;63639;52.280;5.162;2022-11-18T09:10:35;12;11;
73917;PMS5003;63639;52.280;5.162;2022-11-18T09:13:03;15;11;
73917;PMS5003;63639;52.280;5.162;2022-11-18T09:15:30;14;13;
73917;PMS5003;63639;52.280;5.162;2022-11-18T09:17:57;14;13;
73917;PMS5003;63639;52.280;5.162;2022-11-18T09:20:24;14;14;
73917;PMS5003;63639;52.280;5.162;2022-11-18T09:22:51;15;14;
73917;PMS5003;63639;52.280;5.162;2022-11-18T09:25:18;13;12;
73917;PMS5003;63639;52.280;5.162;2022-11-18T09:27:45;14;13;
73917;PMS5003;63639;52.280;5.162;2022-11-18T09:30:12;15;13;
73917;PMS5003;63639;52.280;5.162;2022-11-18T09:32:39;15;15;
73917;PMS5003;63639;52.280;5.162;2022-11-18T09:35:06;15;14;
73917;PMS5003;63639;52.280;5.162;2022-11-18T09:37:33;16;13;
73917;PMS5003;63639;52.280;5.162;2022-11-18T09:40:05;19;18;
73917;PMS5003;63639;52.280;5.162;2022-11-18T09:42:42;16;15;
73917;PMS5003;63639;52.280;5.162;2022-11-18T09:45:20;20;20;
73917;PMS5003;63639;52.280;5.162;2022-11-18T09:47:50;19;19;
73917;PMS5003;63639;52.280;5.162;2022-11-18T09:50:20;17;17;
73917;PMS5003;63639;52.280;5.162;2022-11-18T09:52:55;18;16;
73917;PMS5003;63639;52.280;5.162;2022-11-18T09:55:33;16;15;
73917;PMS5003;63639;52.280;5.162;2022-11-18T09:58:03;21;18;
73917;PMS5003;63639;52.280;5.162;2022-11-18T10:00:32;21;15;
73917;PMS5003;63639;52.280;5.162;2022-11-18T10:03:00;17;15;
73917;PMS5003;63639;52.280;5.162;2022-11-18T10:05:29;16;16;
73917;PMS5003;63639;52.280;5.162;2022-11-18T10:08:00;16;15;
73917;PMS5003;63639;52.280;5.162;2022-11-18T10:10:35;21;17;
73917;PMS5003;63639;52.280;5.162;2022-11-18T10:13:13;21;20;
73917;PMS5003;63639;52.280;5.162;2022-11-18T10:15:52;21;21;
73917;PMS5003;63639;52.280;5.162;2022-11-18T10:18:29;20;15;
73917;PMS5003;63639;52.280;5.162;2022-11-18T10:21:07;19;19;
73917;PMS5003;63639;52.280;5.162;2022-11-18T10:23:45;27;24;
73917;PMS5003;63639;52.280;5.162;2022-11-18T10:26:30;18;17;
73917;PMS5003;63639;52.280;5.162;2022-11-18T10:29:04;16;16;
73917;PMS5003;63639;52.280;5.162;2022-11-18T10:31:30;16;12;
73917;PMS5003;63639;52.280;5.162;2022-11-18T10:33:58;15;15;
73917;PMS5003;63639;52.280;5.162;2022-11-18T10:36:26;16;14;
73917;PMS5003;63639;52.280;5.162;2022-11-18T10:39:11;13;13;
73917;PMS5003;63639;52.280;5.162;2022-11-18T10:41:42;13;13;
73917;PMS5003;63639;52.280;5.162;2022-11-18T10:44:28;12;12;
73917;PMS5003;63639;52.280;5.162;2022-11-18T10:47:14;17;15;
73917;PMS5003;63639;52.280;5.162;2022-11-18T10:49:47;13;13;
73917;PMS5003;63639;52.280;5.162;2022-11-18T10:52:15;19;17;
73917;PMS5003;63639;52.280;5.162;2022-11-18T10:54:43;18;16;
73917;PMS5003;63639;52.280;5.162;2022-11-18T10:57:14;13;13;
73917;PMS5003;63639;52.280;5.162;2022-11-18T10:59:46;12;12;
73917;PMS5003;63639;52.280;5.162;2022-11-18T11:02:16;15;12;
73917;PMS5003;63639;52.280;5.162;2022-11-18T11:04:44;17;15;
73917;PMS5003;63639;52.280;5.162;2022-11-18T11:07:14;14;12;
73917;PMS5003;63639;52.280;5.162;2022-11-18T11:09:45;15;13;
73917;PMS5003;63639;52.280;5.162;2022-11-18T11:12:26;15;14;
73917;PMS5003;63639;52.280;5.162;2022-11-18T11:14:54;15;15;
73917;PMS5003;63639;52.280;5.162;2022-11-18T11:17:26;14;12;
73917;PMS5003;63639;52.280;5.162;2022-11-18T11:20:00;14;13;
73917;PMS5003;63639;52.280;5.162;2022-11-18T11:22:31;14;11;
73917;PMS5003;63639;52.280;5.162;2022-11-18T11:24:57;15;12;
73917;PMS5003;63639;52.280;5.162;2022-11-18T11:27:57;11;10;
73917;PMS5003;63639;52.280;5.162;2022-11-18T11:30:34;11;11;
73917;PMS5003;63639;52.280;5.162;2022-11-18T11:33:12;14;10;
73917;PMS5003;63639;52.280;5.162;2022-11-18T11:35:50;13;13;
73917;PMS5003;63639;52.280;5.162;2022-11-18T11:38:32;12;12;
73917;PMS5003;63639;52.280;5.162;2022-11-18T11:41:08;16;13;
73917;PMS5003;63639;52.280;5.162;2022-11-18T11:43:46;16;14;
73917;PMS5003;63639;52.280;5.162;2022-11-18T11:46:26;13;12;
73917;PMS5003;63639;52.280;5.162;2022-11-18T11:49:00;11;11;
73917;PMS5003;63639;52.280;5.162;2022-11-18T11:51:43;11;11;
73917;PMS5003;63639;52.280;5.162;2022-11-18T11:54:22;12;12;
73917;PMS5003;63639;52.280;5.162;2022-11-18T11:57:00;17;15;
73917;PMS5003;63639;52.280;5.162;2022-11-18T11:59:33;16;16;
73917;PMS5003;63639;52.280;5.162;2022-11-18T12:02:13;14;13;
73917;PMS5003;63639;52.280;5.162;2022-11-18T12:05:06;13;13;
73917;PMS5003;63639;52.280;5.162;2022-11-18T12:07:44;12;12;
73917;PMS5003;63639;52.280;5.162;2022-11-18T12:10:18;13;13;
73917;PMS5003;63639;52.280;5.162;2022-11-18T12:12:53;14;14;
73917;PMS5003;63639;52.280;5.162;2022-11-18T12:15:34;20;15;
73917;PMS5003;63639;52.280;5.162;2022-11-18T12:18:12;13;13;
73917;PMS5003;63639;52.280;5.162;2022-11-18T12:20:44;13;13;
73917;PMS5003;63639;52.280;5.162;2022-11-18T12:23:13;16;15;
73917;PMS5003;63639;52.280;5.162;2022-11-18T12:26:00;17;15;
73917;PMS5003;63639;52.280;5.162;2022-11-18T12:28:30;17;15;
73917;PMS5003;63639;52.280;5.162;2022-11-18T12:31:32;18;17;
73917;PMS5003;63639;52.280;5.162;2022-11-18T12:34:03;21;18;
73917;PMS5003;63639;52.280;5.162;2022-11-18T12:36:43;22;22;
73917;PMS5003;63639;52.280;5.162;2022-11-18T12:39:45;20;19;
73917;PMS5003;63639;52.280;5.162;2022-11-18T12:42:32;20;17;
73917;PMS5003;63639;52.280;5.162;2022-11-18T12:45:36;21;21;
73917;PMS5003;63639;52.280;5.162;2022-11-18T12:48:25;22;22;
73917;PMS5003;63639;52.280;5.162;2022-11-18T12:51:40;24;20;
73917;PMS5003;63639;52.280;5.162;2022-11-18T12:54:25;27;21;
73917;PMS5003;63639;52.280;5.162;2022-11-18T12:56:56;27;26;
73917;PMS5003;63639;52.280;5.162;2022-11-18T12:59:28;28;24;
73917;PMS5003;63639;52.280;5.162;2022-11-18T13:02:02;22;20;
73917;PMS5003;63639;52.280;5.162;2022-11-18T13:04:32;26;25;
73917;PMS5003;63639;52.280;5.162;2022-11-18T13:06:58;30;29;
73917;PMS5003;63639;52.280;5.162;2022-11-18T13:09:27;29;27;
73917;PMS5003;63639;52.280;5.162;2022-11-18T13:11:58;29;27;
73917;PMS5003;63639;52.280;5.162;2022-11-18T13:14:29;29;28;
73917;PMS5003;63639;52.280;5.162;2022-11-18T13:16:59;32;28;
73917;PMS5003;63639;52.280;5.162;2022-11-18T13:19:26;26;23;
73917;PMS5003;63639;52.280;5.162;2022-11-18T13:21:53;35;33;
73917;PMS5003;63639;52.280;5.162;2022-11-18T13:24:21;33;32;
73917;PMS5003;63639;52.280;5.162;2022-11-18T13:26:52;30;29;
73917;PMS5003;63639;52.280;5.162;2022-11-18T13:29:25;38;36;
73917;PMS5003;63639;52.280;5.162;2022-11-18T13:32:04;38;33;
73917;PMS5003;63639;52.280;5.162;2022-11-18T13:34:40;33;31;
73917;PMS5003;63639;52.280;5.162;2022-11-18T13:37:14;31;25;
73917;PMS5003;63639;52.280;5.162;2022-11-18T13:39:44;32;32;
73917;PMS5003;63639;52.280;5.162;2022-11-18T13:42:14;35;32;
73917;PMS5003;63639;52.280;5.162;2022-11-18T13:44:44;36;33;
73917;PMS5003;63639;52.280;5.162;2022-11-18T13:47:19;36;31;
73917;PMS5003;63639;52.280;5.162;2022-11-18T13:49:54;36;33;
73917;PMS5003;63639;52.280;5.162;2022-11-18T13:52:29;38;32;
73917;PMS5003;63639;52.280;5.162;2022-11-18T13:54:59;41;32;
73917;PMS5003;63639;52.280;5.162;2022-11-18T13:57:28;38;38;
73917;PMS5003;63639;52.280;5.162;2022-11-18T13:59:55;35;31;
73917;PMS5003;63639;52.280;5.162;2022-11-18T14:02:27;39;35;
73917;PMS5003;63639;52.280;5.162;2022-11-18T14:04:54;35;35;
73917;PMS5003;63639;52.280;5.162;2022-11-18T14:07:24;41;34;
73917;PMS5003;63639;52.280;5.162;2022-11-18T14:09:54;36;35;
73917;PMS5003;63639;52.280;5.162;2022-11-18T14:12:24;37;37;
73917;PMS5003;63639;52.280;5.162;2022-11-18T14:14:52;32;29;
73917;PMS5003;63639;52.280;5.162;2022-11-18T14:17:19;39;36;
73917;PMS5003;63639;52.280;5.162;2022-11-18T14:19:48;36;34;
73917;PMS5003;63639;52.280;5.162;2022-11-18T14:22:17;37;32;
73917;PMS5003;63639;52.280;5.162;2022-11-18T14:24:52;41;36;
73917;PMS5003;63639;52.280;5.162;2022-11-18T14:27:33;39;39;
73917;PMS5003;63639;52.280;5.162;2022-11-18T14:30:22;39;33;
73917;PMS5003;63639;52.280;5.162;2022-11-18T14:33:09;42;38;
73917;PMS5003;63639;52.280;5.162;2022-11-18T14:35:39;35;34;
73917;PMS5003;63639;52.280;5.162;2022-11-18T14:38:09;41;38;
73917;PMS5003;63639;52.280;5.162;2022-11-18T14:40:39;43;39;
73917;PMS5003;63639;52.280;5.162;2022-11-18T14:43:06;40;38;
73917;PMS5003;63639;52.280;5.162;2022-11-18T14:45:33;36;33;
73917;PMS5003;63639;52.280;5.162;2022-11-18T14:48:00;42;40;
73917;PMS5003;63639;52.280;5.162;2022-11-18T14:50:26;44;40;
73917;PMS5003;63639;52.280;5.162;2022-11-18T14:52:53;32;31;
73917;PMS5003;63639;52.280;5.162;2022-11-18T14:55:20;36;34;
73917;PMS5003;63639;52.280;5.162;2022-11-18T14:57:47;36;33;
73917;PMS5003;63639;52.280;5.162;2022-11-18T15:00:15;33;31;
73917;PMS5003;63639;52.280;5.162;2022-11-18T15:02:42;36;36;
73917;PMS5003;63639;52.280;5.162;2022-11-18T15:05:09;34;32;
73917;PMS5003;63639;52.280;5.162;2022-11-18T15:07:36;37;37;
73917;PMS5003;63639;52.280;5.162;2022-11-18T15:10:03;31;29;
73917;PMS5003;63639;52.280;5.162;2022-11-18T15:12:30;39;34;
73917;PMS5003;63639;52.280;5.162;2022-11-18T15:14:57;29;27;
73917;PMS5003;63639;52.280;5.162;2022-11-18T15:17:23;41;39;
73917;PMS5003;63639;52.280;5.162;2022-11-18T15:19:50;37;35;
73917;PMS5003;63639;52.280;5.162;2022-11-18T15:22:17;29;29;
73917;PMS5003;63639;52.280;5.162;2022-11-18T15:24:43;34;34;
73917;PMS5003;63639;52.280;5.162;2022-11-18T15:27:10;36;35;
73917;PMS5003;63639;52.280;5.162;2022-11-18T15:29:37;36;35;
73917;PMS5003;63639;52.280;5.162;2022-11-18T15:32:05;34;33;
73917;PMS5003;63639;52.280;5.162;2022-11-18T15:34:32;48;42;
73917;PMS5003;63639;52.280;5.162;2022-11-18T15:36:59;43;38;
73917;PMS5003;63639;52.280;5.162;2022-11-18T15:39:26;43;40;
73917;PMS5003;63639;52.280;5.162;2022-11-18T15:41:52;46;42;
73917;PMS5003;63639;52.280;5.162;2022-11-18T15:44:19;37;37;
73917;PMS5003;63639;52.280;5.162;2022-11-18T15:46:46;46;42;
73917;PMS5003;63639;52.280;5.162;2022-11-18T15:49:13;49;44;
73917;PMS5003;63639;52.280;5.162;2022-11-18T15:51:40;48;42;
73917;PMS5003;63639;52.280;5.162;2022-11-18T15:54:07;36;32;
73917;PMS5003;63639;52.280;5.162;2022-11-18T15:56:34;35;33;
73917;PMS5003;63639;52.280;5.162;2022-11-18T15:59:02;33;31;
73917;PMS5003;63639;52.280;5.162;2022-11-18T16:01:31;31;31;
73917;PMS5003;63639;52.280;5.162;2022-11-18T16:03:59;32;32;
73917;PMS5003;63639;52.280;5.162;2022-11-18T16:06:26;34;34;
73917;PMS5003;63639;52.280;5.162;2022-11-18T16:08:53;42;39;
73917;PMS5003;63639;52.280;5.162;2022-11-18T16:11:21;35;35;
73917;PMS5003;63639;52.280;5.162;2022-11-18T16:13:48;38;37;
73917;PMS5003;63639;52.280;5.162;2022-11-18T16:16:17;45;41;
73917;PMS5003;63639;52.280;5.162;2022-11-18T16:18:45;39;37;
73917;PMS5003;63639;52.280;5.162;2022-11-18T16:21:12;30;29;
73917;PMS5003;63639;52.280;5.162;2022-11-18T16:23:39;33;33;
73917;PMS5003;63639;52.280;5.162;2022-11-18T16:26:05;41;39;
73917;PMS5003;63639;52.280;5.162;2022-11-18T16:28:32;49;44;
73917;PMS5003;63639;52.280;5.162;2022-11-18T16:30:59;42;36;
73917;PMS5003;63639;52.280;5.162;2022-11-18T16:33:25;46;44;
73917;PMS5003;63639;52.280;5.162;2022-11-18T16:35:52;43;40;
73917;PMS5003;63639;52.280;5.162;2022-11-18T16:38:18;44;42;
73917;PMS5003;63639;52.280;5.162;2022-11-18T16:40:45;42;40;
73917;PMS5003;63639;52.280;5.162;2022-11-18T16:43:12;48;43;
73917;PMS5003;63639;52.280;5.162;2022-11-18T16:45:38;40;38;